Terminal Aerodrome Forecast
Issued by NWS Brownsville, TX

Home | Current Version | Previous Version | Text Only | Print | Product List | Glossary On
Versions: 1 2 3 4 5 6 7 8 9 10 11 12 13 14 15 16 17 18 19
000
FTUS44 KBRO 291333 AAA
TAFHRL
TAF AMD
KHRL 291333Z 2914/3012 16022G32KT P6SM TSRA OVC030CB
      TEMPO 2914/2916 VRB25G37KT 3SM +TSRA OVC015CB
     FM291700 16017KT P6SM BKN050
     FM300200 14012G19KT P6SM OVC030
     FM300400 14010KT P6SM OVC030
     FM300600 15007KT P6SM OVC015=

USA.gov is the U.S. government's official web portal to all federal, state and local government web resources and services.